• Join FlightAware (Why Join?)
  • Login
  • US Flag 
08:51AM EDT


 

Airport Tracker/Info


-or-


 

Live Flight TrackerFlight Track Log ✈ KAP17 ✈ 09-May-2013 ✈ KBOS - KLEB

Flight Track Log - Related Links

Times and Time Zones

All times are in EDT time to prevent confusion due to time zone crossing. See the KAP17 flight status page for this flight to view local times or setup timezone preferences in your user account.

Time Position Orientation Groundspeed Altitude Reporting Facility
EDT Latitude Longitude Course Direction KTS MPH feet Rate Location/Type
12:10PM 42.3833 -71.0000 340° North 115 132 400  Level KA90
12:11PM 42.4167 -71.0167 340° North 119 137 1,200 720 Climbing KA90
12:12PM 42.4500 -71.0333 340° North 124 143 2,000 720 Climbing KA90
12:13PM 42.4833 -71.0500 340° North 125 144 2,800 660 Climbing KA90
12:14PM 42.5167 -71.0833 324° Northwest 139 160 3,400 540 Climbing KA90
12:15PM 42.5500 -71.1000 340° North 144 166 4,000 600 Climbing KA90
12:16PM 42.5833 -71.1333 324° Northwest 144 166 4,700 600 Climbing KA90
12:17PM 42.6167 -71.1500 340° North 149 171 5,200 600 Climbing KA90
12:18PM 42.6500 -71.1833 324° Northwest 145 167 5,900 420 Climbing KA90
12:19PM 42.6833 -71.2167 324° Northwest 159 183 6,100 60 Climbing KA90
12:20PM 42.7333 -71.2500 334° Northwest 172 198 6,100  Level KA90
12:21PM 42.7667 -71.3000 312° West 169 194 6,200  Climbing KA90
12:22PM 42.8167 -71.3333 334° Northwest 173 199 6,100 -60 Descending KA90
12:23PM 42.8500 -71.3833 312° West 171 197 6,100  Level KA90
12:24PM 42.8833 -71.4167 324° Northwest 177 204 6,100  Level KA90
12:25PM 42.9167 -71.4667 312° West 168 193 6,100  Level KA90
12:26PM 42.9500 -71.5000 324° Northwest 167 192 6,100  Level KA90
12:27PM 42.9908 -71.5572 314° West 173 199 6,100  Level Boston Center
12:28PM 43.0267 -71.5994 319° Northwest 173 199 6,100  Level Boston Center
12:29PM 43.0603 -71.6358 322° Northwest 163 188 6,100  Level Boston Center
12:30PM 43.0939 -71.6781 317° Northwest 163 188 6,100  Level Boston Center
12:31PM 43.1297 -71.7147 323° Northwest 163 188 6,200  Climbing Boston Center
12:32PM 43.1736 -71.7342 342° North 163 188 6,200 -60 Level Boston Center
12:33PM 43.2175 -71.7564 340° North 163 188 6,100 -60 Descending Boston Center
12:34PM 43.2633 -71.7758 343° North 168 193 6,100  Level Boston Center
12:35PM 43.3072 -71.7981 340° North 168 193 6,100 -60 Level Boston Center
12:36PM 43.3511 -71.8175 342° North 168 193 6,000 -60 Descending Boston Center
12:37PM 43.3950 -71.8372 342° North 168 193 6,000  Level Boston Center
12:38PM 43.4325 -71.8569 339° North 168 193 6,100  Climbing Boston Center
12:39PM 43.4847 -71.8822 341° North 168 193 6,100  Level Boston Center
12:40PM 43.5308 -71.9044 341° North 173 199 6,100  Level Boston Center
12:41PM 43.5747 -71.9214 344° North 173 199 6,100 -120 Level Boston Center
12:42PM 43.6206 -71.9439 340° North 173 199 5,900 -300 Descending Boston Center
12:43PM 43.6686 -71.9667 341° North 173 199 5,500 -420 Descending Boston Center
12:44PM 43.7167 -72.0036 331° Northwest 178 205 5,000 -420 Descending Boston Center
12:45PM 43.7314 -72.0608 290° West 147 169 4,600 -600 Descending Boston Center
12:46PM 43.7150 -72.1128 246° West 130 150 3,800 -600 Descending Boston Center
12:48PM 43.7006 -72.1672 250° West 137 158 3,300 -720 Descending Boston Center
12:49PM 43.6736 -72.2247 237° Southwest 143 165 2,300 -1,020 Descending Boston Center